Time;durP1;ratioP1;P1;durP2;ratioP2;P2;SDS_P1;SDS_P2;PMS_P1;PMS_P2;Temp;Humidity;BMP_temperature;BMP_pressure;BME280_temperature;BME280_humidity;BME280_pressure;Samples;Min_cycle;Max_cycle;Signal;HPM_P1;HPM_P2
2023/03/21 00:00:39;;;;;;;4.55;4.25;;;;;;;9.26;94.07;101182.72;6059115;23;20505;-76
2023/03/21 00:03:06;;;;;;;6.18;5.13;;;;;;;9.17;93.95;101166.44;6058392;23;20018;-75
2023/03/21 00:05:32;;;;;;;5.43;4.93;;;;;;;8.96;94.17;101125.38;6026995;23;20041;-75
2023/03/21 00:07:59;;;;;;;5.18;4.82;;;;;;;9.31;94.33;101175.53;6053530;23;20010;-76
2023/03/21 00:10:27;;;;;;;4.72;4.50;;;;;;;9.14;94.01;101177.06;6050668;23;20701;-76
2023/03/21 00:13:11;;;;;;;4.90;4.65;;;;;;;8.41;94.25;101028.03;6020853;23;20035;-76
2023/03/21 00:15:49;;;;;;;5.85;5.45;;;;;;;9.20;94.58;101160.25;6024961;23;20434;-76
2023/03/21 00:18:30;;;;;;;5.93;4.70;;;;;;;8.73;94.96;101084.41;6056064;23;20014;-76
2023/03/21 00:20:59;;;;;;;9.70;5.45;;;;;;;9.13;95.18;101146.53;6067929;23;20352;-75
2023/03/21 00:23:46;;;;;;;5.60;5.15;;;;;;;9.27;95.16;101176.56;6055034;23;20085;-76
2023/03/21 00:26:14;;;;;;;5.20;4.80;;;;;;;9.25;95.09;101163.53;6068711;23;20013;-75
2023/03/21 00:28:42;;;;;;;10.65;5.18;;;;;;;9.09;95.79;101146.72;6051144;23;20017;-76
2023/03/21 00:31:09;;;;;;;5.45;5.05;;;;;;;9.09;95.83;101147.56;6038247;23;20038;-74
2023/03/21 00:33:37;;;;;;;7.43;4.75;;;;;;;8.81;95.98;101095.44;6053067;23;20609;-75
2023/03/21 00:36:05;;;;;;;7.32;5.28;;;;;;;8.72;96.37;101087.91;6062762;23;20032;-76
2023/03/21 00:38:33;;;;;;;6.82;4.82;;;;;;;9.19;97.45;101169.00;6053759;23;20047;-76
2023/03/21 00:40:59;;;;;;;5.55;5.15;;;;;;;9.17;97.65;101171.69;6055779;23;20101;-76
2023/03/21 00:43:30;;;;;;;7.47;5.38;;;;;;;9.04;98.20;101148.66;6022255;23;20648;-76
2023/03/21 00:45:57;;;;;;;5.60;5.22;;;;;;;9.01;98.73;101146.16;6064133;23;20042;-76
2023/03/21 00:48:25;;;;;;;7.15;5.05;;;;;;;9.19;98.82;101179.50;6055498;23;20042;-76
2023/03/21 00:50:54;;;;;;;4.82;4.47;;;;;;;8.92;98.17;101134.25;6006909;23;20014;-77
2023/03/21 00:53:20;;;;;;;5.72;5.20;;;;;;;9.07;98.56;101170.34;6057737;23;20035;-76
2023/03/21 00:55:47;;;;;;;6.05;5.20;;;;;;;9.03;98.75;101141.72;6065543;23;20564;-77
2023/03/21 00:58:14;;;;;;;8.52;4.85;;;;;;;8.90;99.22;101115.16;6030626;23;20022;-75
2023/03/21 01:00:41;;;;;;;9.13;5.43;;;;;;;8.48;99.36;101050.47;6065018;23;20038;-76
2023/03/21 01:03:11;;;;;;;5.43;5.03;;;;;;;9.18;99.62;101162.06;6053608;23;20022;-75
2023/03/21 01:06:05;;;;;;;7.15;5.75;;;;;;;8.89;99.78;101122.16;6061969;23;20030;-75
2023/03/21 01:08:38;;;;;;;4.90;4.60;;;;;;;9.16;99.87;101158.63;6052652;23;20030;-74
2023/03/21 01:11:26;;;;;;;4.93;4.63;;;;;;;9.20;100.00;101162.88;6025697;23;20030;-76
2023/03/21 01:13:53;;;;;;;9.93;6.53;;;;;;;9.21;99.92;101164.56;6052544;23;20018;-76
2023/03/21 01:16:33;;;;;;;6.25;5.78;;;;;;;8.56;99.78;101051.06;6019216;23;20058;-74
2023/03/21 01:18:59;;;;;;;6.03;4.82;;;;;;;9.21;100.00;101159.34;6048767;23;20038;-76
2023/03/21 01:21:27;;;;;;;5.53;5.13;;;;;;;9.03;100.00;101134.72;6065118;23;20076;-75
2023/03/21 01:23:53;;;;;;;5.57;5.18;;;;;;;9.12;100.00;101150.06;6056280;23;20067;-75
2023/03/21 01:26:20;;;;;;;5.22;4.85;;;;;;;9.08;100.00;101127.53;6062739;23;19999;-77
2023/03/21 01:28:46;;;;;;;5.35;4.97;;;;;;;8.79;100.00;101085.00;6054335;23;20098;-76
2023/03/21 01:31:15;;;;;;;5.78;5.28;;;;;;;8.59;100.00;101050.91;6055070;23;20093;-76
2023/03/21 01:33:42;;;;;;;7.22;5.60;;;;;;;8.90;100.00;101107.28;6051312;23;20024;-76
2023/03/21 01:36:15;;;;;;;10.52;6.03;;;;;;;9.19;100.00;101155.91;6060403;23;20032;-75
2023/03/21 01:38:43;;;;;;;6.28;5.70;;;;;;;8.72;100.00;101080.06;6056045;23;20018;-74
2023/03/21 01:41:20;;;;;;;8.90;5.95;;;;;;;9.06;100.00;101144.22;6053903;23;20031;-76
2023/03/21 01:43:48;;;;;;;5.75;5.35;;;;;;;7.90;100.00;100952.38;6063541;23;20033;-76
2023/03/21 01:46:20;;;;;;;5.28;4.88;;;;;;;9.18;100.00;101160.31;6054324;23;20030;-74
2023/03/21 01:48:49;;;;;;;;;;;;;;;9.18;100.00;101159.44;6026949;23;20030;-76
2023/03/21 01:51:17;;;;;;;6.50;5.07;;;;;;;9.17;100.00;101152.50;6055709;23;19926;-76
2023/03/21 01:53:44;;;;;;;7.03;4.93;;;;;;;8.81;100.00;101099.81;6060043;23;20097;-75
2023/03/21 01:56:22;;;;;;;5.72;5.03;;;;;;;9.14;100.00;101150.88;6054470;23;20354;-76
2023/03/21 01:58:54;;;;;;;6.38;5.75;;;;;;;8.16;100.00;100998.44;6024264;23;20053;-75
2023/03/21 02:01:21;;;;;;;5.38;4.97;;;;;;;9.14;100.00;101148.25;6049551;23;20600;-76
2023/03/21 02:03:50;;;;;;;8.23;5.20;;;;;;;8.96;100.00;101123.63;6061785;23;20037;-75
2023/03/21 02:06:30;;;;;;;5.45;5.10;;;;;;;9.09;100.00;101152.81;6043368;23;20022;-75
2023/03/21 02:09:07;;;;;;;8.82;5.45;;;;;;;8.93;100.00;101115.88;6063250;23;20006;-75
2023/03/21 02:11:36;;;;;;;6.55;5.10;;;;;;;9.07;100.00;101131.06;6055692;23;20028;-75
2023/03/21 02:14:02;;;;;;;6.88;5.30;;;;;;;8.50;100.00;101040.78;6026924;23;20050;-76
2023/03/21 02:16:50;;;;;;;8.27;6.32;;;;;;;8.49;100.00;101034.72;6053549;23;20564;-76
2023/03/21 02:19:51;;;;;;;4.88;4.57;;;;;;;9.07;100.00;101133.69;6050988;23;20022;-75
2023/03/21 02:22:56;;;;;;;9.20;5.60;;;;;;;9.06;100.00;101124.13;6049481;23;20026;-75
2023/03/21 02:25:45;;;;;;;5.57;5.05;;;;;;;9.07;100.00;101125.81;6064869;23;20038;-76
2023/03/21 02:28:29;;;;;;;5.78;5.30;;;;;;;9.07;100.00;101128.44;6051233;23;20040;-75
2023/03/21 02:31:16;;;;;;;7.00;5.57;;;;;;;9.08;100.00;101127.53;6071542;23;20545;-75
2023/03/21 02:33:52;;;;;;;4.97;4.57;;;;;;;9.08;100.00;101117.06;6055801;23;20082;-76
2023/03/21 02:36:49;;;;;;;7.18;5.00;;;;;;;9.10;100.00;101117.88;6052843;23;20011;-75
2023/03/21 02:39:49;;;;;;;5.20;4.85;;;;;;;9.11;100.00;101118.72;6049108;23;20029;-75
2023/03/21 02:42:31;;;;;;;5.60;5.20;;;;;;;9.11;100.00;101130.03;6064770;23;20030;-75
2023/03/21 02:45:00;;;;;;;5.20;4.90;;;;;;;8.81;100.00;101066.63;6049684;23;20018;-75
2023/03/21 02:47:51;;;;;;;7.10;5.47;;;;;;;8.78;100.00;101069.41;6029415;23;20026;-77
2023/03/21 02:50:26;;;;;;;5.22;4.82;;;;;;;8.87;100.00;101083.88;6056292;23;20578;-75
2023/03/21 02:52:53;;;;;;;9.27;5.53;;;;;;;8.81;100.00;101071.88;6034330;23;20021;-75
2023/03/21 02:55:24;;;;;;;7.60;5.93;;;;;;;8.88;100.00;101090.78;6001356;23;20030;-78
2023/03/21 02:57:53;;;;;;;5.13;4.72;;;;;;;8.67;100.00;101067.16;6031613;23;20451;-76
2023/03/21 03:00:23;;;;;;;5.80;5.45;;;;;;;8.13;100.00;100985.47;6053642;23;20089;-74
2023/03/21 03:02:50;;;;;;;5.97;5.53;;;;;;;8.77;100.00;101097.31;6048489;23;20102;-75
2023/03/21 03:05:40;;;;;;;5.97;4.75;;;;;;;8.70;100.00;101093.22;6065043;23;20511;-75
2023/03/21 03:08:11;;;;;;;5.00;4.70;;;;;;;8.82;100.00;101117.22;6057065;23;20162;-74
2023/03/21 03:10:57;;;;;;;5.45;4.85;;;;;;;8.83;100.00;101117.16;6065783;23;20033;-73
2023/03/21 03:13:33;;;;;;;6.28;5.60;;;;;;;8.66;100.00;101106.47;6055982;23;20037;-74
2023/03/21 03:16:15;;;;;;;5.10;4.60;;;;;;;8.78;100.00;101108.66;6021361;23;20034;-75
2023/03/21 03:18:51;;;;;;;6.03;5.60;;;;;;;8.32;100.00;101034.50;6049141;23;20040;-75
2023/03/21 03:21:25;;;;;;;5.38;4.88;;;;;;;8.69;100.00;101096.75;6065812;23;20032;-74
2023/03/21 03:24:00;;;;;;;6.97;5.97;;;;;;;8.65;100.00;101100.38;6055739;23;20627;-76
2023/03/21 03:26:33;;;;;;;5.82;5.35;;;;;;;8.62;100.00;101089.19;6065118;23;20021;-74
2023/03/21 03:29:05;;;;;;;7.28;5.28;;;;;;;8.59;100.00;101101.47;6056205;23;20497;-74
2023/03/21 03:31:40;;;;;;;7.55;5.53;;;;;;;8.26;100.00;101047.75;6062527;23;20096;-75
2023/03/21 03:34:15;;;;;;;6.28;5.70;;;;;;;8.58;100.00;101086.69;6053877;23;20033;-76
2023/03/21 03:36:50;;;;;;;6.38;5.03;;;;;;;8.58;100.00;101085.84;6063805;23;20339;-76
2023/03/21 03:39:17;;;;;;;6.85;5.45;;;;;;;8.43;100.00;101055.03;6056610;23;20957;-75
2023/03/21 03:41:53;;;;;;;5.72;5.20;;;;;;;8.43;100.00;101065.50;6060227;23;22323;-76
2023/03/21 03:44:40;;;;;;;5.88;5.35;;;;;;;8.60;100.00;101076.19;6051811;23;20070;-75
2023/03/21 03:47:09;;;;;;;5.47;5.07;;;;;;;8.52;100.00;101067.75;6070846;23;20021;-76
2023/03/21 03:49:54;;;;;;;5.93;5.47;;;;;;;8.41;100.00;101047.22;6054660;23;20030;-74
2023/03/21 03:52:28;;;;;;;5.18;4.75;;;;;;;7.92;100.00;100950.53;6027161;23;20069;-74
2023/03/21 03:54:55;;;;;;;5.80;5.30;;;;;;;7.96;100.00;100954.75;6027152;23;20619;-75
2023/03/21 03:57:25;;;;;;;7.05;5.85;;;;;;;8.52;100.00;101045.06;6064353;23;20398;-74
2023/03/21 03:59:51;;;;;;;6.35;5.78;;;;;;;8.64;100.00;101067.31;6054358;23;20030;-75
2023/03/21 04:02:19;;;;;;;6.80;6.18;;;;;;;8.69;100.00;101067.13;6059497;23;20021;-75
2023/03/21 04:04:45;;;;;;;6.22;5.82;;;;;;;8.00;100.00;100965.94;6053631;23;20097;-74
2023/03/21 04:07:12;;;;;;;6.00;5.50;;;;;;;8.52;100.00;101045.06;6061440;23;20088;-75
2023/03/21 04:09:38;;;;;;;9.48;5.03;;;;;;;8.47;100.00;101031.31;6056023;23;20091;-74
2023/03/21 04:12:11;;;;;;;5.78;5.38;;;;;;;8.59;100.00;101045.69;6066172;23;20014;-75
2023/03/21 04:14:38;;;;;;;5.75;5.35;;;;;;;8.70;100.00;101067.06;6054943;23;20088;-74
2023/03/21 04:17:12;;;;;;;5.28;4.80;;;;;;;8.57;100.00;101044.88;6051730;23;20105;-74
2023/03/21 04:19:38;;;;;;;5.22;4.93;;;;;;;8.59;100.00;101043.91;6062820;23;20022;-74
2023/03/21 04:22:06;;;;;;;5.10;4.80;;;;;;;8.75;100.00;101069.50;6052348;23;20473;-75
2023/03/21 04:24:32;;;;;;;4.85;4.55;;;;;;;8.35;100.00;101002.97;6067318;23;20041;-75
2023/03/21 04:26:59;;;;;;;9.07;6.22;;;;;;;8.79;100.00;101073.69;6051248;23;20018;-75
2023/03/21 04:29:28;;;;;;;9.30;4.90;;;;;;;8.54;100.00;101024.09;6056263;23;20030;-74
2023/03/21 04:31:55;;;;;;;6.10;5.57;;;;;;;8.22;100.00;100967.72;6048093;23;20026;-75
2023/03/21 04:34:22;;;;;;;9.02;5.28;;;;;;;8.56;100.00;101024.88;6028179;23;20043;-75
2023/03/21 04:36:52;;;;;;;6.07;5.57;;;;;;;8.51;100.00;101016.34;6055479;23;20025;-76
2023/03/21 04:39:19;;;;;;;6.53;5.90;;;;;;;8.57;100.00;101021.34;6061301;23;20037;-74
2023/03/21 04:41:49;;;;;;;6.25;5.75;;;;;;;8.75;100.00;101036.31;6030629;23;20014;-75
2023/03/21 04:44:16;;;;;;;8.50;6.30;;;;;;;8.59;100.00;101006.44;6062679;23;20032;-75
2023/03/21 04:46:43;;;;;;;6.03;5.53;;;;;;;8.44;100.00;100967.78;6054783;23;20027;-75
2023/03/21 04:49:10;;;;;;;6.47;5.75;;;;;;;8.42;100.00;100972.22;6064557;23;20030;-76
2023/03/21 04:51:37;;;;;;;5.90;5.30;;;;;;;8.84;100.00;101056.06;6056010;23;20772;-75
2023/03/21 04:54:04;;;;;;;6.53;5.82;;;;;;;8.72;100.00;101005.06;6060014;23;20034;-76
2023/03/21 04:56:32;;;;;;;13.65;5.60;;;;;;;8.61;100.00;100996.78;6057347;23;20019;-76
2023/03/21 04:59:02;;;;;;;6.35;5.70;;;;;;;8.49;100.00;100982.41;6023301;23;20042;-76
2023/03/21 05:01:31;;;;;;;6.50;5.78;;;;;;;8.29;100.00;100945.69;6051644;23;20053;-76
2023/03/21 05:03:59;;;;;;;6.28;5.78;;;;;;;8.60;100.00;101002.94;6054069;23;20535;-75
2023/03/21 05:06:26;;;;;;;5.60;5.15;;;;;;;8.79;100.00;101035.28;6049034;23;20041;-75
2023/03/21 05:08:55;;;;;;;10.90;6.25;;;;;;;8.66;100.00;101021.00;6060673;23;20025;-75
2023/03/21 05:11:22;;;;;;;6.13;5.63;;;;;;;8.66;100.00;101015.78;6050454;23;20092;-74
2023/03/21 05:13:48;;;;;;;12.82;6.22;;;;;;;8.75;100.00;101023.22;6053686;23;20057;-75
2023/03/21 05:16:14;;;;;;;5.68;5.18;;;;;;;7.57;100.00;100835.13;6063941;23;20118;-76
2023/03/21 05:18:41;;;;;;;5.65;5.15;;;;;;;8.70;100.00;101014.72;6029901;23;20026;-75
2023/03/21 05:21:09;;;;;;;12.88;6.57;;;;;;;8.10;100.00;100922.03;6060127;23;20023;-74
2023/03/21 05:23:39;;;;;;;6.20;5.57;;;;;;;8.86;100.00;101045.50;6022520;23;20133;-75
2023/03/21 05:26:07;;;;;;;7.68;5.57;;;;;;;8.60;100.00;101005.53;6055680;23;20672;-75
2023/03/21 05:28:35;;;;;;;5.00;4.70;;;;;;;8.89;100.00;101048.88;6049362;23;20568;-77
2023/03/21 05:31:03;;;;;;;12.75;6.93;;;;;;;8.78;100.00;101035.38;6061924;23;20022;-73
2023/03/21 05:33:31;;;;;;;7.05;5.68;;;;;;;8.55;100.00;101002.25;6050334;23;20030;-74
2023/03/21 05:35:58;;;;;;;11.00;6.70;;;;;;;8.23;100.00;100959.84;6052993;23;20050;-75
2023/03/21 05:38:24;;;;;;;6.43;5.78;;;;;;;8.12;100.00;100941.13;6027809;23;20022;-75
2023/03/21 05:40:53;;;;;;;5.57;5.22;;;;;;;8.61;100.00;101024.69;6052163;23;20088;-74
2023/03/21 05:43:19;;;;;;;5.35;4.95;;;;;;;8.58;100.00;101026.53;6055632;23;20046;-71
2023/03/21 05:45:47;;;;;;;8.68;5.95;;;;;;;8.32;100.00;100990.03;6046142;23;20050;-72
2023/03/21 05:48:13;;;;;;;5.05;4.72;;;;;;;8.62;100.00;101042.09;6025024;23;20044;-72
2023/03/21 05:50:40;;;;;;;6.47;5.88;;;;;;;8.35;100.00;100995.13;6059968;23;20053;-72
2023/03/21 05:53:06;;;;;;;8.82;5.50;;;;;;;8.72;100.00;101062.63;6053497;23;20022;-73
2023/03/21 05:55:33;;;;;;;5.28;4.90;;;;;;;8.67;100.00;101058.47;6051409;23;20050;-73
2023/03/21 05:57:59;;;;;;;5.85;5.32;;;;;;;7.75;100.00;100900.66;6019302;23;20558;-72
2023/03/21 06:00:26;;;;;;;7.93;5.90;;;;;;;8.49;100.00;101028.63;6070202;23;20048;-72
2023/03/21 06:02:55;;;;;;;6.10;5.60;;;;;;;8.69;100.00;101062.72;6053893;23;20022;-71
2023/03/21 06:05:21;;;;;;;11.63;5.35;;;;;;;8.75;100.00;101064.25;6065552;23;20412;-71
2023/03/21 06:07:48;;;;;;;6.40;6.00;;;;;;;8.73;100.00;101053.84;6051715;23;20452;-72
2023/03/21 06:10:14;;;;;;;5.72;5.15;;;;;;;8.62;100.00;101040.34;6061188;23;20101;-71
2023/03/21 06:12:42;;;;;;;5.80;4.88;;;;;;;8.79;100.00;101060.63;6049028;23;20057;-72
2023/03/21 06:15:08;;;;;;;5.00;4.60;;;;;;;8.81;100.00;101060.56;6001740;23;20042;-72
2023/03/21 06:17:35;;;;;;;6.43;5.80;;;;;;;7.79;100.00;100899.66;6025882;23;20030;-73
2023/03/21 06:20:04;;;;;;;14.27;5.95;;;;;;;8.82;100.00;101057.88;6054311;23;20689;-73
2023/03/21 06:22:31;;;;;;;8.38;6.40;;;;;;;8.87;100.00;101065.56;6047694;23;20018;-73
2023/03/21 06:24:57;;;;;;;11.68;5.22;;;;;;;8.67;100.00;101033.16;6058548;23;20026;-73
2023/03/21 06:27:24;;;;;;;5.63;5.22;;;;;;;8.91;100.00;101061.91;6049058;23;20026;-72
2023/03/21 06:29:50;;;;;;;5.70;5.20;;;;;;;8.74;100.00;101057.31;6034155;23;20622;-72
2023/03/21 06:32:17;;;;;;;9.13;5.25;;;;;;;8.99;100.00;101072.91;6052478;23;20025;-72
2023/03/21 06:34:44;;;;;;;5.68;5.22;;;;;;;8.84;100.00;101049.94;6059059;23;20033;-72
2023/03/21 06:37:10;;;;;;;6.28;5.68;;;;;;;9.06;100.00;101084.88;6063211;23;20044;-73
2023/03/21 06:39:37;;;;;;;5.95;5.20;;;;;;;8.87;100.00;101040.22;6060022;23;20074;-72
2023/03/21 06:42:03;;;;;;;6.13;5.57;;;;;;;8.94;100.00;101056.53;6051193;23;20022;-73
2023/03/21 06:44:30;;;;;;;5.50;5.10;;;;;;;8.95;100.00;101047.78;6063551;23;20089;-72
2023/03/21 06:46:56;;;;;;;5.90;5.25;;;;;;;8.27;100.00;100919.59;6022640;23;20034;-71
2023/03/21 06:49:23;;;;;;;5.68;5.18;;;;;;;9.22;100.00;101081.63;6057981;23;20018;-73
2023/03/21 06:51:49;;;;;;;6.07;5.57;;;;;;;8.67;100.00;100987.84;6047036;23;20026;-71
2023/03/21 06:54:17;;;;;;;6.40;4.88;;;;;;;8.92;100.00;101029.56;6037786;23;20029;-72
2023/03/21 06:56:44;;;;;;;8.73;5.78;;;;;;;9.10;100.00;101057.66;6048395;23;20022;-72
2023/03/21 06:59:11;;;;;;;6.22;5.40;;;;;;;9.32;100.00;101093.41;6064253;23;20029;-72
2023/03/21 07:01:38;;;;;;;6.20;4.55;;;;;;;9.25;100.00;101078.88;6053157;23;20034;-72
2023/03/21 07:04:05;;;;;;;5.53;5.00;;;;;;;9.37;100.00;101094.09;6037720;23;20042;-72
2023/03/21 07:06:31;;;;;;;6.07;5.47;;;;;;;9.30;100.00;101079.53;6049935;23;20048;-73
2023/03/21 07:08:58;;;;;;;5.90;5.35;;;;;;;9.14;100.00;101054.00;6046734;23;20044;-72
2023/03/21 07:11:24;;;;;;;7.43;4.85;;;;;;;9.32;100.00;101077.69;6056366;23;20032;-73
2023/03/21 07:13:51;;;;;;;5.82;5.43;;;;;;;9.28;100.00;101083.97;6049673;23;20030;-72
2023/03/21 07:16:20;;;;;;;12.50;5.55;;;;;;;9.18;100.00;101058.19;6034762;23;20094;-72
2023/03/21 07:18:46;;;;;;;7.78;4.85;;;;;;;9.30;100.00;101074.28;6013509;23;20023;-73
2023/03/21 07:21:13;;;;;;;5.15;4.85;;;;;;;9.19;100.00;101051.19;6053035;23;20022;-72
2023/03/21 07:23:40;;;;;;;5.50;5.00;;;;;;;9.59;100.00;101109.78;6052386;23;20033;-74
2023/03/21 07:26:06;;;;;;;6.90;6.28;;;;;;;8.87;100.00;100989.66;6057424;23;20422;-73
2023/03/21 07:28:33;;;;;;;6.07;5.57;;;;;;;9.57;100.00;101095.91;6047740;23;20319;-73
2023/03/21 07:31:03;;;;;;;5.00;4.57;;;;;;;9.49;100.00;101090.13;6025577;23;20094;-73
2023/03/21 07:33:31;;;;;;;7.30;5.20;;;;;;;9.37;100.00;101073.97;6047378;23;20488;-74
2023/03/21 07:35:58;;;;;;;6.55;5.95;;;;;;;9.49;100.00;101083.09;6061786;23;20628;-72
2023/03/21 07:38:26;;;;;;;11.73;6.20;;;;;;;7.97;100.00;100819.69;6051654;23;20037;-74
2023/03/21 07:40:52;;;;;;;5.85;5.43;;;;;;;9.21;100.00;101027.56;6058418;23;20476;-72
2023/03/21 07:43:19;;;;;;;5.60;5.10;;;;;;;9.42;100.00;101034.53;6048446;23;20092;-72
2023/03/21 07:45:46;;;;;;;7.75;6.43;;;;;;;9.70;100.00;101065.66;6057398;23;20052;-73
2023/03/21 07:48:13;;;;;;;7.85;6.13;;;;;;;8.81;100.00;100937.56;6052189;23;20474;-72
2023/03/21 07:50:40;;;;;;;6.82;6.25;;;;;;;9.61;100.00;101066.03;6064602;23;20014;-73
2023/03/21 07:53:07;;;;;;;5.80;5.30;;;;;;;9.57;100.00;101049.56;6053532;23;20015;-71
2023/03/21 07:55:34;;;;;;;6.47;5.95;;;;;;;9.54;100.00;101035.75;6058553;23;20040;-71
2023/03/21 07:58:02;;;;;;;6.15;5.28;;;;;;;9.82;100.00;101085.22;6053258;23;20032;-71
2023/03/21 08:00:29;;;;;;;6.35;5.75;;;;;;;9.78;100.00;101092.38;6058660;23;20025;-72
2023/03/21 08:02:57;;;;;;;5.63;5.22;;;;;;;9.44;100.00;101032.69;6053122;23;20037;-72
2023/03/21 08:05:43;;;;;;;5.75;5.35;;;;;;;9.72;100.00;101081.28;6028433;23;20588;-72
2023/03/21 08:08:10;;;;;;;4.78;4.53;;;;;;;9.89;100.00;101091.91;6051205;23;20059;-73
2023/03/21 08:10:37;;;;;;;9.85;5.95;;;;;;;9.66;100.00;101058.84;6056555;23;20045;-71
2023/03/21 08:13:03;;;;;;;7.10;6.43;;;;;;;9.05;100.00;100970.56;6064354;23;20017;-72
2023/03/21 08:15:30;;;;;;;7.53;6.25;;;;;;;8.77;100.00;100916.75;6030822;23;20423;-73
2023/03/21 08:17:58;;;;;;;6.70;6.20;;;;;;;9.58;100.00;101050.41;6054434;23;20029;-73
2023/03/21 08:20:25;;;;;;;10.73;5.65;;;;;;;9.81;100.00;101099.25;6051234;23;20026;-72
2023/03/21 08:22:51;;;;;;;6.60;6.15;;;;;;;9.58;100.00;101056.53;6060727;23;20030;-71
2023/03/21 08:25:20;;;;;;;6.75;6.03;;;;;;;9.86;100.00;101093.81;6054635;23;20023;-71
2023/03/21 08:27:47;;;;;;;8.00;5.55;;;;;;;9.86;100.00;101104.28;6067398;23;20010;-72
2023/03/21 08:30:17;;;;;;;6.22;5.63;;;;;;;9.91;100.00;101103.19;6056300;23;20046;-71
2023/03/21 08:32:43;;;;;;;6.57;5.18;;;;;;;9.95;100.00;101098.66;6026057;23;20033;-72
2023/03/21 08:35:14;;;;;;;5.72;5.22;;;;;;;9.99;100.00;101097.63;6051022;23;20536;-72
2023/03/21 08:37:42;;;;;;;6.18;5.57;;;;;;;10.03;100.00;101095.72;6056727;23;20049;-72
2023/03/21 08:40:14;;;;;;;5.75;5.28;;;;;;;9.99;100.00;101092.38;6051002;23;20018;-72
2023/03/21 08:42:42;;;;;;;7.03;6.18;;;;;;;9.99;100.00;101095.00;6051436;23;20026;-72
2023/03/21 08:45:10;;;;;;;6.68;5.68;;;;;;;9.92;100.00;101093.53;6055227;23;20028;-71
2023/03/21 08:47:37;;;;;;;7.57;5.88;;;;;;;9.82;100.00;101076.50;6055316;23;20106;-71
2023/03/21 08:50:06;;;;;;;6.38;5.88;;;;;;;9.89;100.00;101089.28;6063794;23;20117;-73
2023/03/21 08:52:32;;;;;;;9.93;6.63;;;;;;;9.83;100.00;101073.81;6047066;23;20058;-73
2023/03/21 08:55:01;;;;;;;15.85;6.03;;;;;;;9.96;100.00;101085.50;6058170;23;20086;-72
2023/03/21 08:57:28;;;;;;;8.27;6.10;;;;;;;9.84;100.00;101057.16;6051353;23;20018;-72
2023/03/21 08:59:54;;;;;;;5.45;5.15;;;;;;;9.79;100.00;101035.56;6063559;23;20026;-72
2023/03/21 09:02:21;;;;;;;7.15;6.45;;;;;;;9.11;100.00;100923.19;6054719;23;20017;-73
2023/03/21 09:04:48;;;;;;;6.85;6.30;;;;;;;10.06;100.00;101072.81;6022694;23;20038;-73
2023/03/21 09:07:15;;;;;;;8.90;6.57;;;;;;;9.69;100.00;100994.94;6053328;23;20033;-73
2023/03/21 09:09:42;;;;;;;7.45;5.78;;;;;;;10.19;100.00;101084.47;6064555;23;20041;-73
2023/03/21 09:12:10;;;;;;;10.23;7.32;;;;;;;10.15;100.00;101058.47;6027385;23;20065;-72
2023/03/21 09:14:36;;;;;;;6.68;5.75;;;;;;;10.13;100.00;101052.44;6068827;23;20014;-72
2023/03/21 09:17:03;;;;;;;18.02;6.30;;;;;;;9.07;100.00;100895.44;6045052;23;20018;-72
2023/03/21 09:19:30;;;;;;;5.97;5.47;;;;;;;10.04;100.00;101058.91;6059089;23;20030;-73
2023/03/21 09:21:57;;;;;;;7.85;6.25;;;;;;;10.09;100.00;101053.50;6052506;23;20088;-73
2023/03/21 09:24:23;;;;;;;9.15;6.60;;;;;;;10.30;100.00;101076.16;6068038;23;20026;-72
2023/03/21 09:26:50;;;;;;;6.43;5.93;;;;;;;9.98;100.00;100999.75;6048869;23;20026;-74
2023/03/21 09:29:19;;;;;;;6.45;5.75;;;;;;;10.47;100.00;101070.16;6035014;23;20043;-72
2023/03/21 09:31:46;;;;;;;5.80;5.43;;;;;;;10.42;100.00;101042.41;6030343;23;20027;-73
2023/03/21 09:34:16;;;;;;;12.75;6.25;;;;;;;10.29;100.00;101011.47;6052281;23;20022;-73
2023/03/21 09:36:43;;;;;;;6.38;5.82;;;;;;;10.65;100.00;101065.81;6053885;23;20101;-72
2023/03/21 09:39:10;;;;;;;5.95;5.55;;;;;;;10.71;100.00;101070.78;6058714;23;20625;-73
2023/03/21 09:41:52;;;;;;;5.55;5.03;;;;;;;10.83;100.00;101071.97;6053495;23;20014;-73
2023/03/21 09:44:57;;;;;;;6.72;5.38;;;;;;;10.89;100.00;101076.09;6062511;23;20034;-72
2023/03/21 09:47:31;;;;;;;8.30;5.35;;;;;;;10.64;100.00;101026.50;6040480;23;20019;-72
2023/03/21 09:50:02;;;;;;;5.68;5.25;;;;;;;10.26;100.00;100982.75;6062110;23;20105;-72
2023/03/21 09:52:50;;;;;;;7.85;6.32;;;;;;;11.09;100.00;101072.53;6022645;23;20567;-72
2023/03/21 09:55:25;;;;;;;6.63;6.05;;;;;;;11.08;100.00;101044.53;6069109;23;20087;-71
2023/03/21 09:58:05;;;;;;;6.82;6.22;;;;;;;11.40;100.00;101066.59;6052450;23;20037;-71
2023/03/21 10:00:42;;;;;;;5.97;5.47;;;;;;;11.33;100.00;101057.34;6049210;23;20546;-72
2023/03/21 10:03:23;;;;;;;7.53;6.45;;;;;;;11.26;100.00;101037.53;6061731;23;20052;-75
2023/03/21 10:05:57;;;;;;;6.55;5.95;;;;;;;11.28;100.00;101047.03;6051375;23;20040;-72
2023/03/21 10:08:30;;;;;;;9.77;6.30;;;;;;;10.52;100.00;100909.84;6021304;23;20046;-72
2023/03/21 10:11:04;;;;;;;6.53;5.93;;;;;;;11.48;100.00;101042.56;6060182;23;20033;-73
2023/03/21 10:13:38;;;;;;;13.60;12.70;;;;;;;11.01;100.00;100959.97;6036895;23;20028;-73
2023/03/21 10:16:40;;;;;;;8.77;6.85;;;;;;;11.29;100.00;100992.72;5969481;23;20084;-76
2023/03/21 10:19:11;;;;;;;7.00;6.40;;;;;;;11.55;100.00;101036.09;6040874;23;20033;-74
2023/03/21 10:21:44;;;;;;;12.32;5.55;;;;;;;11.62;100.00;101029.56;6051298;23;20011;-74
2023/03/21 10:24:33;;;;;;;5.68;5.28;;;;;;;11.65;100.00;101004.91;6066716;23;20554;-74
2023/03/21 10:27:02;;;;;;;11.25;5.97;;;;;;;11.71;100.00;101009.84;6050986;23;20603;-75
2023/03/21 10:29:40;;;;;;;6.43;5.85;;;;;;;11.67;100.00;101001.28;6024407;23;20156;-74
2023/03/21 10:32:16;;;;;;;6.13;5.57;;;;;;;11.20;100.00;100925.72;6023651;23;20563;-74
2023/03/21 10:34:47;;;;;;;8.73;6.80;;;;;;;11.21;100.00;100958.13;6050195;23;20026;-74
2023/03/21 10:37:15;;;;;;;7.03;6.38;;;;;;;11.10;100.00;100964.72;6029066;23;20038;-74
2023/03/21 10:39:45;;;;;;;7.05;6.47;;;;;;;10.72;100.00;100912.38;6049367;23;20026;-73
2023/03/21 10:42:27;;;;;;;7.32;6.13;;;;;;;11.21;100.00;100998.38;6029239;23;20042;-73
2023/03/21 10:44:56;;;;;;;6.25;5.78;;;;;;;10.67;100.00;100924.88;6048628;23;20041;-73
2023/03/21 10:47:29;;;;;;;6.95;6.03;;;;;;;10.91;100.00;100930.69;6000096;23;20039;-74
2023/03/21 10:50:12;;;;;;;12.93;6.00;;;;;;;11.13;100.00;100961.13;6038858;23;20049;-74
2023/03/21 10:52:48;;;;;;;6.60;6.03;;;;;;;11.18;100.00;100978.34;6053147;23;20026;-73
2023/03/21 10:55:24;;;;;;;5.93;5.50;;;;;;;11.18;100.00;100966.97;6050151;23;20113;-72
2023/03/21 10:58:06;;;;;;;9.68;6.53;;;;;;;11.10;100.00;100943.72;6058190;23;20162;-74
2023/03/21 11:00:43;;;;;;;9.07;5.63;;;;;;;10.52;100.00;100837.25;6020297;23;20085;-74
2023/03/21 11:03:37;;;;;;;6.22;5.65;;;;;;;11.35;100.00;100959.09;6064883;23;20369;-74
2023/03/21 11:06:21;;;;;;;7.53;5.65;;;;;;;11.41;100.00;100950.06;6035966;23;20019;-74
2023/03/21 11:08:53;;;;;;;7.43;5.53;;;;;;;11.40;100.00;100931.72;6065213;23;20082;-74
2023/03/21 11:11:26;;;;;;;6.63;6.03;;;;;;;11.15;100.00;100869.97;6047490;23;20009;-74
2023/03/21 11:13:58;;;;;;;5.50;5.10;;;;;;;11.33;100.00;100876.03;6023512;23;20104;-74
2023/03/21 11:16:34;;;;;;;8.68;5.18;;;;;;;11.34;100.00;100864.56;6022085;23;20022;-74
2023/03/21 11:19:11;;;;;;;7.00;6.18;;;;;;;11.48;100.00;100872.56;6024754;23;20093;-75
2023/03/21 11:21:38;;;;;;;6.13;5.68;;;;;;;11.18;100.00;100827.75;6050403;23;20033;-73
2023/03/21 11:24:07;;;;;;;5.93;5.53;;;;;;;11.64;100.00;100901.53;6022303;23;20088;-74
2023/03/21 11:26:36;;;;;;;5.72;5.32;;;;;;;11.29;100.00;100835.09;6055171;23;20023;-73
2023/03/21 11:29:29;;;;;;;6.35;5.60;;;;;;;11.67;100.00;100882.97;6064006;23;20343;-75
2023/03/21 11:32:35;;;;;;;5.50;5.20;;;;;;;11.60;100.00;100896.53;6056394;23;20661;-73
2023/03/21 11:35:19;;;;;;;8.15;5.50;;;;;;;11.50;100.00;100909.28;6012580;23;20022;-74
2023/03/21 11:37:52;;;;;;;6.30;5.72;;;;;;;10.98;100.00;100807.78;6055253;23;20030;-73
2023/03/21 11:40:27;;;;;;;5.53;5.13;;;;;;;11.58;100.00;100913.22;6027768;23;21467;-74
2023/03/21 11:43:27;;;;;;;6.90;6.35;;;;;;;11.73;100.00;100918.59;6057167;23;20054;-73